Time;durP1;ratioP1;P1;durP2;ratioP2;P2;SDS_P1;SDS_P2;PMS_P1;PMS_P2;Temp;Humidity;BMP_temperature;BMP_pressure;BME280_temperature;BME280_humidity;BME280_pressure;Samples;Min_cycle;Max_cycle;Signal;HPM_P1;HPM_P2
2020/12/20 00:00:37;;;;;;;6.05;5.45;;;;;;;;;;5094138;28;20220;-64
2020/12/20 00:03:04;;;;;;;7.60;6.80;;;;;;;;;;5096477;28;20212;-63
2020/12/20 00:05:32;;;;;;;6.63;5.95;;;;;;;;;;5094647;28;20676;-63
2020/12/20 00:07:59;;;;;;;7.72;6.63;;;;;;;;;;5094909;28;20204;-64
2020/12/20 00:10:26;;;;;;;6.93;6.18;;;;;;;;;;5093764;28;20707;-63
2020/12/20 00:12:52;;;;;;;7.18;6.10;;;;;;;;;;5093505;28;20208;-64
2020/12/20 00:15:20;;;;;;;8.18;6.47;;;;;;;;;;5093472;28;20207;-64
2020/12/20 00:17:47;;;;;;;7.72;6.35;;;;;;;;;;5093696;28;20196;-65
2020/12/20 00:20:14;;;;;;;6.47;5.88;;;;;;;;;;5094045;28;20231;-63
2020/12/20 00:22:41;;;;;;;7.25;6.55;;;;;;;;;;5097683;28;20207;-64
2020/12/20 00:25:08;;;;;;;6.30;5.70;;;;;;;;;;5098421;28;20290;-63
2020/12/20 00:27:35;;;;;;;7.20;6.45;;;;;;;;;;5097871;28;20265;-63
2020/12/20 00:30:01;;;;;;;7.40;6.70;;;;;;;;;;5097707;28;20232;-63
2020/12/20 00:32:29;;;;;;;7.88;6.10;;;;;;;;;;5097873;28;20201;-63
2020/12/20 00:34:56;;;;;;;6.85;6.15;;;;;;;;;;5097631;28;20200;-62
2020/12/20 00:37:22;;;;;;;6.53;5.80;;;;;;;;;;5097798;28;20192;-64
2020/12/20 00:39:49;;;;;;;7.63;6.80;;;;;;;;;;5097533;28;20204;-63
2020/12/20 00:42:16;;;;;;;7.03;6.32;;;;;;;;;;5097511;28;20565;-64
2020/12/20 00:44:43;;;;;;;8.90;6.57;;;;;;;;;;5097377;28;20200;-63
2020/12/20 00:47:10;;;;;;;6.35;5.50;;;;;;;;;;5097329;28;20204;-63
2020/12/20 00:49:37;;;;;;;8.18;7.28;;;;;;;;;;5097233;28;20204;-64
2020/12/20 00:52:05;;;;;;;7.25;6.55;;;;;;;;;;5102875;28;20254;-63
2020/12/20 00:54:32;;;;;;;6.50;5.90;;;;;;;;;;5102262;28;20197;-65
2020/12/20 00:56:59;;;;;;;6.50;5.85;;;;;;;;;;5097334;28;20199;-64
2020/12/20 00:59:26;;;;;;;7.43;6.63;;;;;;;;;;5097234;28;20212;-64
2020/12/20 01:01:53;;;;;;;6.75;6.13;;;;;;;;;;5097235;28;20220;-63
2020/12/20 01:04:20;;;;;;;7.65;6.95;;;;;;;;;;5097091;28;20261;-63
2020/12/20 01:06:47;;;;;;;7.25;6.55;;;;;;;;;;5096468;28;20208;-62
2020/12/20 01:09:16;;;;;;;6.97;6.30;;;;;;;;;;5097120;28;20224;-64
2020/12/20 01:11:43;;;;;;;6.82;5.80;;;;;;;;;;5097243;28;20307;-63
2020/12/20 01:14:09;;;;;;;7.10;6.40;;;;;;;;;;5097293;28;20200;-63
2020/12/20 01:16:36;;;;;;;7.00;6.30;;;;;;;;;;5097269;28;20200;-64
2020/12/20 01:19:03;;;;;;;7.28;5.72;;;;;;;;;;5096647;28;20199;-64
2020/12/20 01:21:30;;;;;;;6.80;6.03;;;;;;;;;;5096884;28;20220;-63
2020/12/20 01:23:57;;;;;;;6.25;5.65;;;;;;;;;;5096683;28;20273;-63
2020/12/20 01:26:24;;;;;;;6.63;6.03;;;;;;;;;;5096243;28;20204;-64
2020/12/20 01:28:51;;;;;;;7.93;6.95;;;;;;;;;;5096211;28;20223;-64
2020/12/20 01:31:17;;;;;;;7.45;6.75;;;;;;;;;;5096457;28;20220;-64
2020/12/20 01:33:44;;;;;;;6.50;5.90;;;;;;;;;;5095886;28;20204;-62
2020/12/20 01:36:12;;;;;;;7.80;7.10;;;;;;;;;;5097349;28;20205;-63
2020/12/20 01:38:39;;;;;;;8.00;6.05;;;;;;;;;;5098344;28;20196;-62
2020/12/20 01:41:07;;;;;;;7.63;6.53;;;;;;;;;;5096802;28;20220;-64
2020/12/20 01:43:41;;;;;;;6.65;6.05;;;;;;;;;;5096611;28;20208;-63
2020/12/20 01:46:09;;;;;;;7.40;6.70;;;;;;;;;;5096510;28;20212;-64
2020/12/20 01:48:36;;;;;;;5.95;5.35;;;;;;;;;;5096122;28;20212;-64
2020/12/20 01:51:03;;;;;;;7.88;6.75;;;;;;;;;;5096320;28;20220;-63
2020/12/20 01:53:29;;;;;;;9.07;6.43;;;;;;;;;;5095895;28;20212;-64
2020/12/20 01:55:59;;;;;;;6.68;6.07;;;;;;;;;;5096156;28;20197;-63
2020/12/20 01:58:27;;;;;;;8.25;7.22;;;;;;;;;;5096065;28;20605;-62
2020/12/20 02:00:54;;;;;;;7.90;6.20;;;;;;;;;;5095878;28;20564;-64
2020/12/20 02:03:22;;;;;;;7.63;6.55;;;;;;;;;;5095980;28;20258;-63
2020/12/20 02:05:49;;;;;;;7.20;6.45;;;;;;;;;;5095664;28;20212;-63
2020/12/20 02:08:16;;;;;;;8.85;5.85;;;;;;;;;;5095560;28;20311;-63
2020/12/20 02:10:43;;;;;;;6.72;6.03;;;;;;;;;;5095719;28;20228;-63
2020/12/20 02:13:10;;;;;;;7.10;6.40;;;;;;;;;;5096200;28;20273;-63
2020/12/20 02:15:37;;;;;;;7.05;6.22;;;;;;;;;;5096135;28;20208;-63
2020/12/20 02:18:04;;;;;;;7.43;6.63;;;;;;;;;;5097335;28;20704;-63
2020/12/20 02:20:31;;;;;;;7.30;6.05;;;;;;;;;;5098353;28;20590;-63
2020/12/20 02:22:58;;;;;;;7.60;6.80;;;;;;;;;;5097151;28;20614;-64
2020/12/20 02:25:25;;;;;;;6.35;5.75;;;;;;;;;;5096433;28;20207;-63
2020/12/20 02:27:52;;;;;;;7.72;6.72;;;;;;;;;;5097129;28;20216;-63
2020/12/20 02:30:19;;;;;;;7.28;6.30;;;;;;;;;;5097562;28;20270;-62
2020/12/20 02:32:45;;;;;;;7.32;6.57;;;;;;;;;;5096533;28;20203;-63
2020/12/20 02:35:12;;;;;;;8.00;7.22;;;;;;;;;;5096125;28;20200;-63
2020/12/20 02:37:39;;;;;;;8.45;7.55;;;;;;;;;;5096452;28;20196;-63
2020/12/20 02:40:06;;;;;;;7.18;6.47;;;;;;;;;;5098393;28;20225;-64
2020/12/20 02:42:33;;;;;;;8.27;6.70;;;;;;;;;;5102403;28;20204;-64
2020/12/20 02:45:00;;;;;;;7.28;6.55;;;;;;;;;;5096142;28;20621;-63
2020/12/20 02:47:27;;;;;;;7.97;6.70;;;;;;;;;;5093725;28;20733;-64
2020/12/20 02:49:53;;;;;;;8.23;7.35;;;;;;;;;;5098263;28;20197;-63
2020/12/20 02:52:20;;;;;;;7.45;6.75;;;;;;;;;;5102302;28;20200;-64
2020/12/20 02:54:47;;;;;;;8.68;6.82;;;;;;;;;;5100808;28;20223;-63
2020/12/20 02:57:14;;;;;;;7.28;6.57;;;;;;;;;;5096161;28;20814;-63
2020/12/20 02:59:41;;;;;;;7.60;6.22;;;;;;;;;;5095248;28;20205;-63
2020/12/20 03:02:08;;;;;;;8.60;7.70;;;;;;;;;;5096656;28;20604;-62
2020/12/20 03:04:34;;;;;;;7.10;6.40;;;;;;;;;;5094667;28;20261;-62
2020/12/20 03:07:01;;;;;;;7.43;6.72;;;;;;;;;;5094437;28;20258;-63
2020/12/20 03:09:28;;;;;;;7.45;6.75;;;;;;;;;;5094574;28;20220;-62
2020/12/20 03:11:55;;;;;;;8.85;7.25;;;;;;;;;;5094443;28;20602;-63
2020/12/20 03:14:22;;;;;;;8.45;7.65;;;;;;;;;;5094114;28;20208;-63
2020/12/20 03:16:49;;;;;;;7.57;6.82;;;;;;;;;;5094530;28;20622;-64
2020/12/20 03:19:16;;;;;;;8.05;7.25;;;;;;;;;;5094176;28;20656;-63
2020/12/20 03:21:42;;;;;;;8.50;7.70;;;;;;;;;;5094255;28;20285;-64
2020/12/20 03:24:09;;;;;;;7.90;7.10;;;;;;;;;;5094351;28;20197;-63
2020/12/20 03:26:36;;;;;;;7.97;7.28;;;;;;;;;;5094317;28;20200;-64
2020/12/20 03:29:03;;;;;;;7.90;7.20;;;;;;;;;;5093708;28;20714;-63
2020/12/20 03:31:31;;;;;;;7.35;6.65;;;;;;;;;;5093850;28;20738;-64
2020/12/20 03:33:57;;;;;;;8.38;7.60;;;;;;;;;;5094330;28;20675;-63
2020/12/20 03:36:24;;;;;;;9.90;7.95;;;;;;;;;;5093863;28;20208;-64
2020/12/20 03:38:51;;;;;;;8.48;7.68;;;;;;;;;;5094130;28;20219;-64
2020/12/20 03:41:17;;;;;;;9.35;7.95;;;;;;;;;;5093641;28;20228;-64
2020/12/20 03:43:44;;;;;;;8.70;7.80;;;;;;;;;;5093941;28;20253;-64
2020/12/20 03:46:11;;;;;;;8.43;7.63;;;;;;;;;;5093875;28;20200;-63
2020/12/20 03:48:38;;;;;;;8.70;7.85;;;;;;;;;;5093840;28;20239;-63
2020/12/20 03:51:05;;;;;;;9.57;8.05;;;;;;;;;;5093931;28;20220;-63
2020/12/20 03:53:32;;;;;;;8.60;7.80;;;;;;;;;;5094852;28;20556;-64
2020/12/20 03:55:59;;;;;;;8.40;7.60;;;;;;;;;;5093696;28;20205;-64
2020/12/20 03:58:25;;;;;;;10.50;8.75;;;;;;;;;;5093610;28;20222;-62
2020/12/20 04:00:52;;;;;;;8.85;7.85;;;;;;;;;;5093971;28;20220;-63
2020/12/20 04:03:19;;;;;;;10.57;9.35;;;;;;;;;;5094098;28;20196;-63
2020/12/20 04:07:29;;;;;;;8.40;7.60;;;;;;;;;;5112053;27;20578;-63
2020/12/20 04:09:56;;;;;;;11.40;8.80;;;;;;;;;;5111680;28;20196;-62
2020/12/20 04:12:22;;;;;;;9.60;8.68;;;;;;;;;;5111778;28;20204;-63
2020/12/20 04:14:49;;;;;;;10.48;9.48;;;;;;;;;;5111462;28;20203;-64
2020/12/20 04:17:16;;;;;;;10.82;8.98;;;;;;;;;;5112008;28;20203;-63
2020/12/20 04:19:43;;;;;;;10.10;9.10;;;;;;;;;;5113204;28;20231;-64
2020/12/20 04:22:09;;;;;;;9.68;8.77;;;;;;;;;;5111734;28;20199;-63
2020/12/20 04:24:37;;;;;;;9.15;8.25;;;;;;;;;;5111339;28;20204;-64
2020/12/20 04:27:04;;;;;;;9.43;8.50;;;;;;;;;;5111342;28;20215;-63
2020/12/20 04:29:31;;;;;;;10.73;9.43;;;;;;;;;;5111313;28;20214;-63
2020/12/20 04:32:00;;;;;;;11.18;8.55;;;;;;;;;;5120520;28;20219;-63
2020/12/20 04:34:26;;;;;;;10.65;8.95;;;;;;;;;;5115776;28;20248;-62
2020/12/20 04:36:53;;;;;;;9.18;8.13;;;;;;;;;;5111710;28;20195;-62
2020/12/20 04:39:20;;;;;;;13.00;9.15;;;;;;;;;;5112301;28;20202;-62
2020/12/20 04:41:48;;;;;;;10.50;8.98;;;;;;;;;;5113066;28;20224;-63
2020/12/20 04:44:14;;;;;;;9.63;8.68;;;;;;;;;;5112607;28;20210;-63
2020/12/20 04:46:41;;;;;;;10.60;8.05;;;;;;;;;;5111084;28;20612;-63
2020/12/20 04:49:09;;;;;;;10.18;8.50;;;;;;;;;;5110554;28;20671;-63
2020/12/20 04:51:36;;;;;;;9.52;8.60;;;;;;;;;;5111629;28;20226;-62
2020/12/20 04:54:03;;;;;;;11.52;9.73;;;;;;;;;;5112828;28;20204;-63
2020/12/20 04:56:36;;;;;;;9.02;8.13;;;;;;;;;;5112591;28;20268;-63
2020/12/20 04:59:06;;;;;;;12.32;9.80;;;;;;;;;;5114572;28;20238;-63
2020/12/20 05:01:33;;;;;;;11.05;8.32;;;;;;;;;;5111378;28;20227;-62
2020/12/20 05:03:59;;;;;;;9.23;8.32;;;;;;;;;;5110835;28;20199;-61
2020/12/20 05:06:26;;;;;;;9.20;8.27;;;;;;;;;;5111150;28;20235;-62
2020/12/20 05:08:59;;;;;;;9.75;8.85;;;;;;;;;;5110291;28;20733;-62
2020/12/20 05:11:32;;;;;;;9.35;8.45;;;;;;;;;;5110781;28;20220;-62
2020/12/20 05:13:59;;;;;;;10.02;8.98;;;;;;;;;;5110331;28;20207;-63
2020/12/20 05:16:34;;;;;;;9.10;8.20;;;;;;;;;;5109913;28;20203;-62
2020/12/20 05:19:00;;;;;;;9.63;8.70;;;;;;;;;;5095707;28;20203;-62
2020/12/20 05:21:28;;;;;;;13.48;9.68;;;;;;;;;;5096550;28;20217;-62
2020/12/20 05:23:55;;;;;;;8.77;7.97;;;;;;;;;;5096563;28;20215;-62
2020/12/20 05:26:26;;;;;;;10.95;9.00;;;;;;;;;;5096117;28;20220;-62
2020/12/20 05:28:53;;;;;;;9.82;8.82;;;;;;;;;;5096310;28;20203;-62
2020/12/20 05:31:21;;;;;;;10.73;9.20;;;;;;;;;;5096150;28;20731;-61
2020/12/20 05:33:50;;;;;;;9.40;8.57;;;;;;;;;;5097408;28;20235;-62
2020/12/20 05:36:24;;;;;;;10.40;9.30;;;;;;;;;;5095992;28;20197;-62
2020/12/20 05:38:51;;;;;;;9.40;8.07;;;;;;;;;;5096469;28;20279;-61
2020/12/20 05:41:29;;;;;;;11.57;8.23;;;;;;;;;;5096313;28;20249;-62
2020/12/20 05:44:11;;;;;;;9.45;8.45;;;;;;;;;;5096349;28;20279;-61
2020/12/20 05:46:38;;;;;;;8.32;7.43;;;;;;;;;;5096567;28;20200;-61
2020/12/20 05:49:14;;;;;;;8.90;8.00;;;;;;;;;;5096380;28;20207;-63
2020/12/20 05:52:00;;;;;;;9.32;8.25;;;;;;;;;;5096337;28;20311;-63
2020/12/20 05:54:30;;;;;;;9.75;8.75;;;;;;;;;;5096206;28;20279;-63
2020/12/20 05:57:05;;;;;;;10.13;9.07;;;;;;;;;;5096247;28;20247;-62
2020/12/20 05:59:32;;;;;;;9.77;8.45;;;;;;;;;;5096080;28;20559;-61
2020/12/20 06:01:59;;;;;;;15.50;8.60;;;;;;;;;;5095977;28;20242;-62
2020/12/20 06:04:26;;;;;;;9.20;8.30;;;;;;;;;;5096121;28;20580;-63
2020/12/20 06:06:57;;;;;;;9.10;8.15;;;;;;;;;;5095740;28;20216;-62
2020/12/20 06:09:25;;;;;;;9.65;8.73;;;;;;;;;;5095655;28;20185;-62
2020/12/20 06:11:53;;;;;;;8.95;7.95;;;;;;;;;;5095209;28;20216;-63
2020/12/20 06:14:21;;;;;;;9.30;8.48;;;;;;;;;;5095773;28;20215;-62
2020/12/20 06:16:52;;;;;;;10.65;9.55;;;;;;;;;;5108438;28;20563;-62
2020/12/20 06:19:21;;;;;;;10.23;9.13;;;;;;;;;;5095741;28;20181;-62
2020/12/20 06:21:58;;;;;;;10.05;8.40;;;;;;;;;;5095821;28;20216;-63
2020/12/20 06:24:27;;;;;;;9.82;8.80;;;;;;;;;;5096142;28;20184;-62
2020/12/20 06:26:57;;;;;;;9.98;8.98;;;;;;;;;;5096340;28;20251;-61
2020/12/20 06:29:25;;;;;;;10.40;9.20;;;;;;;;;;5098453;28;20601;-61
2020/12/20 06:31:56;;;;;;;10.57;8.90;;;;;;;;;;5097203;28;20258;-61
2020/12/20 06:34:23;;;;;;;9.95;8.88;;;;;;;;;;5096822;28;20628;-62
2020/12/20 06:36:51;;;;;;;11.00;9.43;;;;;;;;;;5098467;28;20192;-62
2020/12/20 06:39:33;;;;;;;9.93;8.93;;;;;;;;;;5098471;28;20205;-63
2020/12/20 06:41:59;;;;;;;10.52;9.00;;;;;;;;;;5099698;28;20220;-62
2020/12/20 06:44:26;;;;;;;10.05;8.82;;;;;;;;;;5098476;28;20205;-62
2020/12/20 06:46:53;;;;;;;10.15;9.15;;;;;;;;;;5098137;28;20228;-61
2020/12/20 06:49:32;;;;;;;9.60;8.65;;;;;;;;;;5097303;28;20226;-61
2020/12/20 06:52:17;;;;;;;11.07;9.52;;;;;;;;;;5096151;28;20583;-62
2020/12/20 06:55:00;;;;;;;10.70;9.60;;;;;;;;;;5096255;28;20745;-62
2020/12/20 06:57:27;;;;;;;9.55;8.50;;;;;;;;;;5096733;28;20580;-63
2020/12/20 06:59:54;;;;;;;10.65;9.25;;;;;;;;;;5100968;28;20209;-63
2020/12/20 07:02:39;;;;;;;10.80;9.75;;;;;;;;;;5102115;28;20212;-61
2020/12/20 07:05:06;;;;;;;10.38;9.38;;;;;;;;;;5101855;28;20207;-62
2020/12/20 07:07:32;;;;;;;9.50;8.45;;;;;;;;;;5100954;28;20208;-62
2020/12/20 07:10:00;;;;;;;10.10;8.52;;;;;;;;;;5101652;28;20218;-61
2020/12/20 07:12:33;;;;;;;10.18;9.10;;;;;;;;;;5101385;28;20253;-62
2020/12/20 07:15:00;;;;;;;11.85;9.68;;;;;;;;;;5097214;28;20197;-62
2020/12/20 07:17:26;;;;;;;9.60;8.60;;;;;;;;;;5103514;28;20203;-62
2020/12/20 07:20:12;;;;;;;11.10;9.57;;;;;;;;;;5103435;28;20201;-62
2020/12/20 07:22:42;;;;;;;9.57;8.63;;;;;;;;;;5102868;28;20211;-61
2020/12/20 07:25:10;;;;;;;9.38;8.55;;;;;;;;;;5102439;28;20554;-62
2020/12/20 07:27:37;;;;;;;11.35;9.23;;;;;;;;;;5099932;28;20239;-63
2020/12/20 07:30:04;;;;;;;10.10;9.00;;;;;;;;;;5100237;28;20224;-61
2020/12/20 07:32:32;;;;;;;9.88;8.95;;;;;;;;;;5098350;28;20571;-61
2020/12/20 07:34:59;;;;;;;10.18;9.05;;;;;;;;;;5098382;28;20677;-62
2020/12/20 07:37:26;;;;;;;10.73;9.50;;;;;;;;;;5097233;28;20208;-61
2020/12/20 07:40:02;;;;;;;11.70;10.50;;;;;;;;;;5096527;28;20253;-63
2020/12/20 07:42:29;;;;;;;10.40;9.30;;;;;;;;;;5105888;28;20188;-62
2020/12/20 07:44:56;;;;;;;10.55;9.25;;;;;;;;;;5102732;28;20203;-63
2020/12/20 07:47:23;;;;;;;10.88;9.75;;;;;;;;;;5096816;28;20262;-62
2020/12/20 07:49:56;;;;;;;13.20;9.90;;;;;;;;;;5094694;28;20208;-62
2020/12/20 07:52:23;;;;;;;11.05;9.48;;;;;;;;;;5094556;28;20184;-62
2020/12/20 07:54:56;;;;;;;11.63;9.13;;;;;;;;;;5094324;28;20200;-63
2020/12/20 07:57:23;;;;;;;11.80;10.65;;;;;;;;;;5095003;28;20211;-63
2020/12/20 08:00:01;;;;;;;11.40;10.20;;;;;;;;;;5109397;28;20209;-62
2020/12/20 08:02:28;;;;;;;10.75;9.73;;;;;;;;;;5103797;28;20218;-61
2020/12/20 08:05:04;;;;;;;10.32;9.30;;;;;;;;;;5101865;28;20201;-62
2020/12/20 08:07:31;;;;;;;12.10;10.50;;;;;;;;;;5106442;28;20219;-62
2020/12/20 08:09:58;;;;;;;10.48;9.35;;;;;;;;;;5107155;28;20667;-62
2020/12/20 08:12:25;;;;;;;13.40;10.32;;;;;;;;;;5109901;28;20196;-63
2020/12/20 08:15:01;;;;;;;11.25;10.02;;;;;;;;;;5099017;28;20208;-64
2020/12/20 08:17:28;;;;;;;11.27;10.18;;;;;;;;;;5095245;28;20532;-63
2020/12/20 08:19:55;;;;;;;16.17;10.95;;;;;;;;;;5094307;28;20204;-64
2020/12/20 08:22:23;;;;;;;12.10;10.15;;;;;;;;;;5094506;28;20200;-63
2020/12/20 08:24:50;;;;;;;11.85;10.23;;;;;;;;;;5093293;28;20621;-62
2020/12/20 08:27:18;;;;;;;11.23;10.02;;;;;;;;;;5093587;28;20619;-62
2020/12/20 08:29:46;;;;;;;11.30;10.05;;;;;;;;;;5093599;28;20200;-61
2020/12/20 08:32:14;;;;;;;11.55;10.40;;;;;;;;;;5093761;28;20204;-63
2020/12/20 08:34:41;;;;;;;13.07;10.40;;;;;;;;;;5093493;28;20197;-63
2020/12/20 08:37:12;;;;;;;11.52;10.35;;;;;;;;;;5093848;28;20200;-63
2020/12/20 08:39:39;;;;;;;12.85;11.55;;;;;;;;;;5093943;28;20607;-64
2020/12/20 08:42:06;;;;;;;12.07;10.48;;;;;;;;;;5093899;28;20224;-63
2020/12/20 08:44:33;;;;;;;11.57;10.48;;;;;;;;;;5093471;28;20203;-63
2020/12/20 08:47:07;;;;;;;12.98;10.55;;;;;;;;;;5094130;28;20224;-63
2020/12/20 08:49:35;;;;;;;13.25;10.93;;;;;;;;;;5093431;28;20200;-63
2020/12/20 08:52:09;;;;;;;14.65;10.73;;;;;;;;;;5093501;28;20304;-63
2020/12/20 08:54:36;;;;;;;12.05;10.63;;;;;;;;;;5097306;28;20189;-62
2020/12/20 08:57:05;;;;;;;11.93;10.73;;;;;;;;;;5097177;28;20201;-64
2020/12/20 08:59:32;;;;;;;11.82;10.65;;;;;;;;;;5097036;28;20299;-62
2020/12/20 09:02:00;;;;;;;12.30;11.02;;;;;;;;;;5096901;28;20220;-63
2020/12/20 09:04:27;;;;;;;14.07;11.23;;;;;;;;;;5097203;28;20306;-63
2020/12/20 09:07:15;;;;;;;14.43;12.40;;;;;;;;;;5096556;28;20250;-62
2020/12/20 09:09:42;;;;;;;13.05;11.60;;;;;;;;;;5092190;28;20257;-61
2020/12/20 09:12:16;;;;;;;14.32;11.25;;;;;;;;;;5096936;28;20196;-63
2020/12/20 09:14:44;;;;;;;12.35;11.00;;;;;;;;;;5096855;28;20196;-61
2020/12/20 09:17:10;;;;;;;13.95;12.07;;;;;;;;;;5096396;28;20201;-63
2020/12/20 09:19:37;;;;;;;12.82;11.48;;;;;;;;;;5096434;28;20258;-64
2020/12/20 09:22:04;;;;;;;14.15;11.90;;;;;;;;;;5096634;28;20278;-63
2020/12/20 09:24:31;;;;;;;13.07;11.63;;;;;;;;;;5096407;28;20206;-64
2020/12/20 09:26:59;;;;;;;14.60;11.55;;;;;;;;;;5096753;28;20220;-63
2020/12/20 09:29:26;;;;;;;13.15;11.10;;;;;;;;;;5096752;28;20273;-62
2020/12/20 09:31:54;;;;;;;15.93;12.18;;;;;;;;;;5096469;28;20220;-63
2020/12/20 09:34:21;;;;;;;13.00;11.50;;;;;;;;;;5096166;28;20204;-63
2020/12/20 09:36:48;;;;;;;13.88;11.75;;;;;;;;;;5096440;28;20204;-63
2020/12/20 09:39:14;;;;;;;12.70;11.38;;;;;;;;;;5096089;28;20204;-62
2020/12/20 09:41:41;;;;;;;13.20;11.82;;;;;;;;;;5096555;28;20220;-63
2020/12/20 09:44:09;;;;;;;13.93;11.90;;;;;;;;;;5106539;28;20215;-64
2020/12/20 09:46:38;;;;;;;13.05;11.68;;;;;;;;;;5098339;28;20316;-65
2020/12/20 09:49:05;;;;;;;13.65;12.30;;;;;;;;;;5096605;28;20197;-64
2020/12/20 09:51:33;;;;;;;13.93;12.05;;;;;;;;;;5096136;28;20265;-62
2020/12/20 09:54:00;;;;;;;13.40;12.00;;;;;;;;;;5098655;28;20614;-62
2020/12/20 09:56:27;;;;;;;14.95;10.75;;;;;;;;;;5097859;28;20192;-63
2020/12/20 09:58:54;;;;;;;12.98;10.60;;;;;;;;;;5097345;28;20200;-64
2020/12/20 10:01:22;;;;;;;13.18;11.30;;;;;;;;;;5098723;28;20224;-61
2020/12/20 10:03:49;;;;;;;12.40;11.10;;;;;;;;;;5101899;28;20310;-61
2020/12/20 10:06:16;;;;;;;13.57;11.43;;;;;;;;;;5099067;28;20270;-62
2020/12/20 10:08:43;;;;;;;12.98;10.85;;;;;;;;;;5097334;28;20667;-63
2020/12/20 10:11:10;;;;;;;13.65;11.07;;;;;;;;;;5096866;28;20235;-63
2020/12/20 10:13:37;;;;;;;13.10;11.63;;;;;;;;;;5096359;28;20212;-63
2020/12/20 10:16:03;;;;;;;13.40;11.95;;;;;;;;;;5096214;28;20200;-61
2020/12/20 10:18:31;;;;;;;13.85;11.25;;;;;;;;;;5096553;28;20196;-64
2020/12/20 10:20:58;;;;;;;13.10;11.55;;;;;;;;;;5095919;28;20224;-63
2020/12/20 10:23:25;;;;;;;12.27;10.82;;;;;;;;;;5096187;28;20200;-60
2020/12/20 10:25:51;;;;;;;13.40;12.00;;;;;;;;;;5095446;28;20200;-63
2020/12/20 10:28:18;;;;;;;15.90;12.10;;;;;;;;;;5095480;28;20201;-63
2020/12/20 10:30:45;;;;;;;14.38;11.68;;;;;;;;;;5095108;28;20311;-62
2020/12/20 10:33:13;;;;;;;14.13;12.68;;;;;;;;;;5095256;28;20250;-62
2020/12/20 10:35:41;;;;;;;14.13;11.55;;;;;;;;;;5095248;28;20232;-62
2020/12/20 10:38:08;;;;;;;12.02;10.77;;;;;;;;;;5096064;28;20566;-62
2020/12/20 10:40:35;;;;;;;13.40;12.07;;;;;;;;;;5094660;28;20220;-62
2020/12/20 10:43:02;;;;;;;13.30;11.90;;;;;;;;;;5094914;28;20204;-64
2020/12/20 10:45:29;;;;;;;13.35;12.00;;;;;;;;;;5094854;28;20345;-62
2020/12/20 10:47:57;;;;;;;14.23;12.75;;;;;;;;;;5094757;28;20311;-62
2020/12/20 10:50:24;;;;;;;13.55;11.73;;;;;;;;;;5094501;28;20224;-62
2020/12/20 10:52:52;;;;;;;15.23;11.30;;;;;;;;;;5094662;28;20287;-63
2020/12/20 10:55:19;;;;;;;12.98;11.68;;;;;;;;;;5094446;28;20294;-62
2020/12/20 10:57:46;;;;;;;13.70;11.90;;;;;;;;;;5094931;28;20573;-61
2020/12/20 11:00:13;;;;;;;13.30;11.90;;;;;;;;;;5098813;28;20312;-61
2020/12/20 11:02:40;;;;;;;15.70;12.10;;;;;;;;;;5100366;28;20200;-62
2020/12/20 11:05:07;;;;;;;15.70;12.27;;;;;;;;;;5095206;28;20686;-62
2020/12/20 11:07:34;;;;;;;14.00;12.10;;;;;;;;;;5094246;28;20672;-63
2020/12/20 11:10:02;;;;;;;14.25;11.65;;;;;;;;;;5094583;28;20200;-62
2020/12/20 11:12:29;;;;;;;13.63;12.25;;;;;;;;;;5094686;28;20201;-61
2020/12/20 11:14:55;;;;;;;13.10;11.30;;;;;;;;;;5094029;28;20549;-63
2020/12/20 11:17:22;;;;;;;13.68;12.23;;;;;;;;;;5094081;28;20226;-62
2020/12/20 11:19:49;;;;;;;12.00;10.80;;;;;;;;;;5094239;28;20257;-63
2020/12/20 11:22:16;;;;;;;13.20;11.25;;;;;;;;;;5094035;28;20201;-63
2020/12/20 11:24:42;;;;;;;13.38;11.98;;;;;;;;;;5093941;28;20671;-63
2020/12/20 11:27:10;;;;;;;18.05;11.75;;;;;;;;;;5096488;28;20212;-63
2020/12/20 11:29:39;;;;;;;14.70;11.63;;;;;;;;;;5101404;28;20733;-64
2020/12/20 11:32:06;;;;;;;12.15;10.95;;;;;;;;;;5094608;28;20220;-63
2020/12/20 11:34:32;;;;;;;12.63;11.02;;;;;;;;;;5093849;28;20303;-63
2020/12/20 11:36:59;;;;;;;13.80;12.32;;;;;;;;;;5094104;28;20200;-62
2020/12/20 11:39:26;;;;;;;13.82;12.40;;;;;;;;;;5093542;28;20672;-62
2020/12/20 11:41:53;;;;;;;13.23;11.82;;;;;;;;;;5093822;28;20240;-62
2020/12/20 11:44:21;;;;;;;20.40;14.25;;;;;;;;;;5093861;28;20200;-64
2020/12/20 11:46:47;;;;;;;24.58;18.23;;;;;;;;;;5093802;28;20220;-63
2020/12/20 11:49:14;;;;;;;14.52;11.80;;;;;;;;;;5093848;28;20672;-62
2020/12/20 11:51:42;;;;;;;13.88;12.27;;;;;;;;;;5093428;28;20227;-62
2020/12/20 11:54:08;;;;;;;12.82;11.52;;;;;;;;;;5093354;28;20200;-63
2020/12/20 11:56:35;;;;;;;13.18;11.77;;;;;;;;;;5093819;28;20199;-62
2020/12/20 11:59:02;;;;;;;13.57;12.10;;;;;;;;;;5093875;28;20207;-62
2020/12/20 12:01:30;;;;;;;12.17;10.30;;;;;;;;;;5093505;28;20231;-62
2020/12/20 12:03:57;;;;;;;12.13;10.83;;;;;;;;;;5093466;28;20438;-63
2020/12/20 12:06:24;;;;;;;13.38;11.02;;;;;;;;;;5093323;28;21004;-62
2020/12/20 12:08:51;;;;;;;13.15;11.75;;;;;;;;;;5093613;28;20617;-62
2020/12/20 12:11:18;;;;;;;12.00;10.70;;;;;;;;;;5093882;28;20247;-62
2020/12/20 12:13:45;;;;;;;12.30;10.80;;;;;;;;;;5093768;28;20269;-61
2020/12/20 12:16:13;;;;;;;12.68;11.20;;;;;;;;;;5094278;28;20250;-62
2020/12/20 12:18:40;;;;;;;12.48;11.13;;;;;;;;;;5094724;28;20200;-62
2020/12/20 12:21:11;;;;;;;11.93;10.63;;;;;;;;;;5094036;28;20319;-63
2020/12/20 12:23:37;;;;;;;11.55;10.20;;;;;;;;;;5094291;28;20185;-61
2020/12/20 12:26:04;;;;;;;13.48;11.75;;;;;;;;;;5093718;28;20687;-63
2020/12/20 12:28:31;;;;;;;12.65;11.10;;;;;;;;;;5097087;28;20207;-62
2020/12/20 12:30:57;;;;;;;12.63;11.32;;;;;;;;;;5098609;28;20227;-61
2020/12/20 12:33:24;;;;;;;13.40;11.32;;;;;;;;;;5098011;28;20610;-62
2020/12/20 12:35:52;;;;;;;13.73;11.48;;;;;;;;;;5098027;28;20225;-61
2020/12/20 12:38:18;;;;;;;13.10;11.05;;;;;;;;;;5098940;28;20201;-62
2020/12/20 12:40:45;;;;;;;12.10;10.30;;;;;;;;;;5098900;28;20707;-63
2020/12/20 12:43:12;;;;;;;13.15;11.75;;;;;;;;;;5100341;28;20226;-62
2020/12/20 12:45:39;;;;;;;13.30;11.90;;;;;;;;;;5099721;28;20200;-62
2020/12/20 12:48:07;;;;;;;12.40;10.73;;;;;;;;;;5099881;28;20224;-62
2020/12/20 12:50:34;;;;;;;13.63;11.63;;;;;;;;;;5098590;28;20224;-61
2020/12/20 12:53:02;;;;;;;12.95;10.10;;;;;;;;;;5097361;28;20737;-65
2020/12/20 12:55:29;;;;;;;12.02;10.80;;;;;;;;;;5096965;28;20702;-63
2020/12/20 12:57:56;;;;;;;12.40;10.85;;;;;;;;;;5098607;28;20292;-63
2020/12/20 13:00:23;;;;;;;15.30;10.80;;;;;;;;;;5097066;28;20220;-64
2020/12/20 13:02:49;;;;;;;12.27;10.90;;;;;;;;;;5096931;28;20192;-63
2020/12/20 13:05:16;;;;;;;12.30;10.52;;;;;;;;;;5097419;28;20207;-63
2020/12/20 13:07:43;;;;;;;11.27;10.07;;;;;;;;;;5098344;28;20217;-63
2020/12/20 13:10:10;;;;;;;12.32;11.07;;;;;;;;;;5097637;28;20242;-64
2020/12/20 13:12:37;;;;;;;12.15;9.45;;;;;;;;;;5096797;28;20201;-64
2020/12/20 13:15:04;;;;;;;12.13;10.80;;;;;;;;;;5096870;28;20200;-63
2020/12/20 13:17:31;;;;;;;12.30;10.05;;;;;;;;;;5096542;28;20199;-63
2020/12/20 13:19:57;;;;;;;11.13;10.00;;;;;;;;;;5096260;28;20618;-63
2020/12/20 13:22:26;;;;;;;11.95;10.50;;;;;;;;;;5096424;28;20813;-63
2020/12/20 13:24:52;;;;;;;13.03;9.50;;;;;;;;;;5096910;28;20239;-62
2020/12/20 13:27:20;;;;;;;11.40;10.13;;;;;;;;;;5096252;28;20469;-63
2020/12/20 13:29:47;;;;;;;11.63;9.90;;;;;;;;;;5096089;28;20200;-64
2020/12/20 13:32:13;;;;;;;13.32;11.57;;;;;;;;;;5096240;28;20201;-62
2020/12/20 13:34:40;;;;;;;12.98;10.40;;;;;;;;;;5095873;28;20560;-64
2020/12/20 13:37:07;;;;;;;11.05;9.90;;;;;;;;;;5095984;28;20291;-64
2020/12/20 13:39:34;;;;;;;10.88;9.70;;;;;;;;;;5095428;28;20667;-62
2020/12/20 13:42:01;;;;;;;12.43;9.55;;;;;;;;;;5095665;28;20224;-63
2020/12/20 13:44:28;;;;;;;12.50;9.80;;;;;;;;;;5096679;28;20207;-63
2020/12/20 13:46:55;;;;;;;14.63;10.27;;;;;;;;;;5096108;28;20212;-62
2020/12/20 13:49:22;;;;;;;12.23;10.60;;;;;;;;;;5095797;28;20196;-64
2020/12/20 13:51:50;;;;;;;12.07;9.65;;;;;;;;;;5095992;28;20231;-64
2020/12/20 13:54:17;;;;;;;10.38;9.35;;;;;;;;;;5095969;28;20629;-62
2020/12/20 13:56:44;;;;;;;12.10;10.85;;;;;;;;;;5097062;28;20200;-61
2020/12/20 13:59:11;;;;;;;13.20;10.27;;;;;;;;;;5095764;28;20232;-61
2020/12/20 14:01:38;;;;;;;11.43;10.23;;;;;;;;;;5095809;28;20246;-62
2020/12/20 14:04:05;;;;;;;12.45;10.65;;;;;;;;;;5095878;28;20196;-62
2020/12/20 14:06:32;;;;;;;12.23;10.95;;;;;;;;;;5095720;28;20221;-61
2020/12/20 14:08:59;;;;;;;12.70;11.40;;;;;;;;;;5095500;28;20250;-63
2020/12/20 14:11:25;;;;;;;12.90;11.57;;;;;;;;;;5095735;28;20599;-62
2020/12/20 14:13:52;;;;;;;11.38;9.48;;;;;;;;;;5095363;28;20231;-63
2020/12/20 14:16:19;;;;;;;11.57;10.43;;;;;;;;;;5096043;28;20196;-61
2020/12/20 14:18:46;;;;;;;11.75;10.10;;;;;;;;;;5095953;28;20608;-62
2020/12/20 14:21:13;;;;;;;10.93;9.80;;;;;;;;;;5095512;28;20278;-61
2020/12/20 14:23:43;;;;;;;12.07;10.70;;;;;;;;;;5094520;28;20535;-62
2020/12/20 14:26:14;;;;;;;11.93;10.18;;;;;;;;;;5095424;28;20538;-62
2020/12/20 14:28:41;;;;;;;16.15;11.23;;;;;;;;;;5095468;28;20188;-62
2020/12/20 14:31:09;;;;;;;11.55;10.43;;;;;;;;;;5095567;28;20224;-62
2020/12/20 14:33:36;;;;;;;11.07;9.82;;;;;;;;;;5097073;28;20205;-63